Terminal Aerodrome Forecast
Issued by NWS

Home | Current Version | Previous Version | Text Only | Print | Product List | Glossary On
Versions: 1 2 3 4 5 6 7 8 9 10 11 12 13 14 15 16 17 18
000
FTUS45 KFGZ 200828 AAA
TAFSEZ
TAF AMD
KSEZ 200828Z 2008/2106 VRB03KT P6SM SCT008 BKN040
      TEMPO 2008/2010 4SM BR BKN008
     FM201000 VRB03KT P6SM BKN003 OVC006
      TEMPO 2010/2014 1SM BR BKN002
     FM201600 VRB05KT P6SM SCT025 BKN250
     FM202300 23006KT P6SM SCT250=

USA.gov is the U.S. government's official web portal to all federal, state and local government web resources and services.